Killen, Alabama
Current Conditions -  °F | °C
As of 7:53 PM on Sunday 25 Jan 2015 (Local Time) from KMSL Reporting Station
Broken Clouds Broken Clouds  
Wind Chill: 40°   Ceiling: 11000
Heat Index: 43°   Visibility: 10mi
Dew Point: 40°   Wind: 5mph
Humidity: 89%   Direction: 260°W
Pressure: 29.79"   Gusts: NA
Location:  34.86°N, 87.54°W
Report Text: KMSL 260153Z AUTO 26004KT 10SM SCT033 SCT060 BKN110 06/04 A2979 RMK AO2 RAE11 SLP089 P0000 T00610044
Loading
Personal Weather Stations






























Interactive Weather Map New forecast layout! Learn more

10-Day Weather Forecast

Advertisements
Track Severe Weather on mobile